createdAt,value
2023-02-18T00:02:04.716Z,99854.22
2023-02-18T00:04:35.847Z,99854.78
2023-02-18T00:07:07.451Z,99862.25
2023-02-18T00:09:39.460Z,99855.81
2023-02-18T00:12:10.620Z,99858.03
2023-02-18T00:14:54.313Z,99855.59
2023-02-18T00:17:25.201Z,99858.66
2023-02-18T00:19:54.354Z,99865.47
2023-02-18T00:22:25.110Z,99852.06
2023-02-18T00:24:54.049Z,99859.09
2023-02-18T00:27:24.997Z,99856.19
2023-02-18T00:29:57.520Z,99853.19
2023-02-18T00:32:31.245Z,99876.03
2023-02-18T00:35:03.633Z,99865.31
2023-02-18T00:37:35.582Z,99869.44
2023-02-18T00:40:10.084Z,99869.59
2023-02-18T00:42:38.641Z,99862.00
2023-02-18T00:45:10.659Z,99867.59
2023-02-18T00:47:44.554Z,99873.53
2023-02-18T00:50:14.094Z,99877.91
2023-02-18T00:52:42.169Z,99864.38
2023-02-18T00:55:16.176Z,99880.56
2023-02-18T00:57:46.744Z,99872.44
2023-02-18T01:00:21.430Z,99885.09
2023-02-18T01:02:56.940Z,99880.25
2023-02-18T01:05:27.963Z,99881.09
2023-02-18T01:08:01.624Z,99902.00
2023-02-18T01:10:35.903Z,99888.38
2023-02-18T01:13:06.917Z,99870.72
2023-02-18T01:15:39.265Z,99871.97
2023-02-18T01:18:16.287Z,99876.03
2023-02-18T01:20:45.828Z,99872.19
2023-02-18T01:23:23.634Z,99880.88
2023-02-18T01:25:52.951Z,99868.97
2023-02-18T01:28:25.350Z,99874.88
2023-02-18T01:30:57.414Z,99856.84
2023-02-18T01:33:35.267Z,99843.78
2023-02-18T01:36:09.777Z,99860.31
2023-02-18T01:38:43.061Z,99846.94
2023-02-18T01:41:12.085Z,99838.13
2023-02-18T01:43:41.254Z,99843.97
2023-02-18T01:46:25.558Z,99846.47
2023-02-18T01:49:04.528Z,99836.31
2023-02-18T01:51:37.165Z,99849.34
2023-02-18T01:54:12.472Z,99858.94
2023-02-18T01:56:50.867Z,99837.88
2023-02-18T01:59:26.233Z,99852.56
2023-02-18T02:01:57.131Z,99840.88
2023-02-18T02:04:27.214Z,99839.78
2023-02-18T02:07:04.121Z,99833.38
2023-02-18T02:09:45.568Z,99846.47
2023-02-18T02:12:43.560Z,99839.19
2023-02-18T02:15:37.137Z,99837.19
2023-02-18T02:18:34.270Z,99833.34
2023-02-18T02:21:50.160Z,99837.97
2023-02-18T02:24:55.041Z,99847.00
2023-02-18T02:27:28.731Z,99838.69
2023-02-18T02:30:33.538Z,99843.19
2023-02-18T02:33:50.068Z,99830.34
2023-02-18T02:36:25.552Z,99846.63
2023-02-18T02:38:58.619Z,99832.91
2023-02-18T02:41:44.439Z,99832.16
2023-02-18T02:44:32.202Z,99839.16
2023-02-18T02:47:09.016Z,99841.97
2023-02-18T02:49:42.821Z,99841.09
2023-02-18T02:52:16.140Z,99837.13
2023-02-18T02:54:48.571Z,99846.56
2023-02-18T02:57:47.801Z,99860.13
2023-02-18T03:00:36.026Z,99846.34
2023-02-18T03:03:52.179Z,99856.66
2023-02-18T03:06:45.444Z,99845.72
2023-02-18T03:09:36.689Z,99831.25
2023-02-18T03:12:10.888Z,99835.84
2023-02-18T03:14:46.195Z,99839.06
2023-02-18T03:17:27.478Z,99841.69
2023-02-18T03:20:02.165Z,99848.00
2023-02-18T03:22:33.847Z,99820.91
2023-02-18T03:25:11.224Z,99824.13
2023-02-18T03:27:48.062Z,99832.31
2023-02-18T03:30:32.772Z,99836.34
2023-02-18T03:33:06.124Z,99823.41
2023-02-18T03:35:39.733Z,99836.16
2023-02-18T03:38:17.229Z,99836.81
2023-02-18T03:40:55.569Z,99860.28
2023-02-18T03:43:33.140Z,99843.19
2023-02-18T03:46:02.779Z,99842.25
2023-02-18T03:48:34.233Z,99841.44
2023-02-18T03:51:06.934Z,99842.88
2023-02-18T03:53:35.884Z,99838.59
2023-02-18T03:56:19.030Z,99848.78
2023-02-18T03:58:56.291Z,99845.44
2023-02-18T04:01:28.101Z,99838.13
2023-02-18T04:04:08.731Z,99855.25
2023-02-18T04:06:39.304Z,99855.25
2023-02-18T04:09:10.514Z,99854.47
2023-02-18T04:11:58.433Z,99843.06
2023-02-18T04:14:35.450Z,99858.59
2023-02-18T04:17:05.383Z,99846.66
2023-02-18T04:19:33.885Z,99853.63
2023-02-18T04:22:06.203Z,99864.94
2023-02-18T04:24:37.232Z,99872.13
2023-02-18T04:27:11.104Z,99856.91
2023-02-18T04:29:44.819Z,99854.53
2023-02-18T04:32:21.781Z,99864.41
2023-02-18T04:34:52.199Z,99870.06
2023-02-18T04:37:30.248Z,99849.94
2023-02-18T04:39:59.167Z,99861.13
2023-02-18T04:42:32.978Z,99861.88
2023-02-18T04:45:02.267Z,99867.38
2023-02-18T04:47:34.394Z,99863.72
2023-02-18T04:50:05.030Z,99881.59
2023-02-18T04:52:35.567Z,99870.72
2023-02-18T04:55:06.291Z,99874.00
2023-02-18T04:57:37.013Z,99856.47
2023-02-18T05:00:08.203Z,99874.81
2023-02-18T05:02:44.635Z,99874.91
2023-02-18T05:05:13.908Z,99884.00
2023-02-18T05:07:51.462Z,99882.66
2023-02-18T05:10:20.985Z,99878.41
2023-02-18T05:13:02.322Z,99889.63
2023-02-18T05:15:32.007Z,99894.59
2023-02-18T05:18:08.968Z,99902.94
2023-02-18T05:20:38.239Z,99897.81
2023-02-18T05:23:07.042Z,99927.16
2023-02-18T05:25:39.711Z,99899.41
2023-02-18T05:28:20.841Z,99913.91
2023-02-18T05:30:50.353Z,99899.69
2023-02-18T05:33:24.725Z,99900.78
2023-02-18T05:36:04.588Z,99908.28
2023-02-18T05:38:34.265Z,99907.13
2023-02-18T05:41:04.612Z,99895.59
2023-02-18T05:44:05.376Z,99904.09
2023-02-18T05:46:36.958Z,99922.53
2023-02-18T05:49:11.078Z,99910.81
2023-02-18T05:51:40.017Z,99904.59
2023-02-18T05:54:11.989Z,99897.25
2023-02-18T05:56:41.385Z,99903.78
2023-02-18T05:59:12.052Z,99920.59
2023-02-18T06:01:48.732Z,99910.91
2023-02-18T06:04:26.036Z,99913.72
2023-02-18T06:06:55.982Z,99915.31
2023-02-18T06:09:34.768Z,99940.16
2023-02-18T06:12:07.687Z,99906.31
2023-02-18T06:14:46.037Z,99915.16
2023-02-18T06:17:15.852Z,99918.69
2023-02-18T06:19:49.476Z,99917.19
2023-02-18T06:22:20.599Z,99924.81
2023-02-18T06:24:52.389Z,99930.19
2023-02-18T06:27:23.121Z,99923.75
2023-02-18T06:29:57.137Z,99923.59
2023-02-18T06:32:26.693Z,99920.97
2023-02-18T06:35:03.746Z,99939.13
2023-02-18T06:37:34.701Z,99919.56
2023-02-18T06:40:08.782Z,99926.44
2023-02-18T06:42:38.384Z,99915.56
2023-02-18T06:45:10.192Z,99939.13
2023-02-18T06:47:47.703Z,99921.84
2023-02-18T06:50:27.280Z,99912.72
2023-02-18T06:52:59.720Z,99919.53
2023-02-18T06:55:31.112Z,99926.13
2023-02-18T06:58:02.738Z,99924.75
2023-02-18T07:00:36.371Z,99905.06
2023-02-18T07:03:07.799Z,99920.91
2023-02-18T07:05:48.347Z,99909.34
2023-02-18T07:08:18.576Z,99911.72
2023-02-18T07:10:50.103Z,99908.13
2023-02-18T07:13:21.708Z,99917.19
2023-02-18T07:15:58.246Z,99906.06
2023-02-18T07:18:29.877Z,99920.00
2023-02-18T07:21:00.995Z,99917.19
2023-02-18T07:23:42.521Z,99914.94
2023-02-18T07:26:13.333Z,99909.66
2023-02-18T07:28:43.742Z,99914.81
2023-02-18T07:31:13.691Z,99921.16
2023-02-18T07:33:45.253Z,99915.41
2023-02-18T07:36:16.436Z,99912.50
2023-02-18T07:38:50.838Z,99903.94
2023-02-18T07:41:28.771Z,99913.44
2023-02-18T07:44:02.781Z,99918.97
2023-02-18T07:46:46.011Z,99913.03
2023-02-18T07:49:18.497Z,99913.91
2023-02-18T07:51:58.273Z,99915.72
2023-02-18T07:54:29.085Z,99914.81
2023-02-18T07:56:57.368Z,99919.25
2023-02-18T07:59:31.270Z,99929.88
2023-02-18T08:02:09.800Z,99902.38
2023-02-18T08:04:48.349Z,99925.84
2023-02-18T08:07:25.991Z,99912.91
2023-02-18T08:09:55.197Z,99928.81
2023-02-18T08:12:24.186Z,99916.88
2023-02-18T08:14:56.058Z,99924.66
2023-02-18T08:17:27.819Z,99918.47
2023-02-18T08:19:58.899Z,99902.88
2023-02-18T08:22:28.509Z,99924.81
2023-02-18T08:24:57.407Z,99906.53
2023-02-18T08:27:26.983Z,99901.31
2023-02-18T08:29:57.477Z,99911.22
2023-02-18T08:32:37.361Z,99915.72
2023-02-18T08:35:15.174Z,99920.78
2023-02-18T08:37:52.931Z,99933.28
2023-02-18T08:40:31.043Z,99929.28
2023-02-18T08:43:03.076Z,99921.84
2023-02-18T08:45:36.097Z,99933.63
2023-02-18T08:48:24.150Z,99920.63
2023-02-18T08:50:56.093Z,99913.50
2023-02-18T08:53:25.780Z,99916.13
2023-02-18T08:56:01.535Z,99892.31
2023-02-18T08:58:42.524Z,99906.22
2023-02-18T09:01:20.727Z,99884.88
2023-02-18T09:04:06.550Z,99899.41
2023-02-18T09:06:38.853Z,99898.88
2023-02-18T09:09:11.314Z,99888.22
2023-02-18T09:11:40.305Z,99909.22
2023-02-18T09:14:09.838Z,99892.44
2023-02-18T09:16:39.215Z,99891.59
2023-02-18T09:19:24.204Z,99899.41
2023-02-18T09:21:55.475Z,99870.00
2023-02-18T09:24:27.643Z,99880.47
2023-02-18T09:26:57.576Z,99881.16
2023-02-18T09:29:29.336Z,99892.59
2023-02-18T09:32:02.569Z,99872.75
2023-02-18T09:34:37.016Z,99870.75
2023-02-18T09:37:08.094Z,99889.78
2023-02-18T09:39:40.468Z,99901.72
2023-02-18T09:42:14.988Z,99881.88
2023-02-18T09:44:55.776Z,99892.19
2023-02-18T09:47:31.740Z,99892.91
2023-02-18T09:50:07.209Z,99920.94
2023-02-18T09:52:39.373Z,99874.88
2023-02-18T09:55:24.761Z,99899.53
2023-02-18T09:57:59.582Z,99896.88
2023-02-18T10:00:34.426Z,99862.56
2023-02-18T10:03:06.460Z,99851.59
2023-02-18T10:05:59.470Z,99885.16
2023-02-18T10:08:30.089Z,99861.03
2023-02-18T10:11:10.681Z,99879.19
2023-02-18T10:13:39.857Z,99864.22
2023-02-18T10:16:13.800Z,99921.09
2023-02-18T10:18:46.385Z,99862.88
2023-02-18T10:21:25.169Z,99856.34
2023-02-18T10:23:59.191Z,99878.88
2023-02-18T10:26:30.680Z,99854.31
2023-02-18T10:29:00.658Z,99860.25
2023-02-18T10:31:35.610Z,99861.38
2023-02-18T10:34:13.002Z,99849.44
2023-02-18T10:36:55.900Z,99867.16
2023-02-18T10:40:10.419Z,99858.25
2023-02-18T10:42:59.364Z,99890.97
2023-02-18T10:45:43.098Z,99839.97
2023-02-18T10:48:39.873Z,99864.28
2023-02-18T10:51:16.272Z,99839.34
2023-02-18T10:53:50.508Z,99832.09
2023-02-18T10:56:46.565Z,99836.81
2023-02-18T10:59:34.195Z,99864.88
2023-02-18T11:02:14.907Z,99872.09
2023-02-18T11:04:46.721Z,99824.41
2023-02-18T11:07:17.662Z,99822.25
2023-02-18T11:09:58.085Z,99881.38
2023-02-18T11:12:33.668Z,99804.03
2023-02-18T11:15:20.895Z,99808.13
2023-02-18T11:17:55.363Z,99790.06
2023-02-18T11:20:40.417Z,99790.63
2023-02-18T11:23:30.268Z,99785.84
2023-02-18T11:26:07.859Z,99767.75
2023-02-18T11:28:48.736Z,99772.63
2023-02-18T11:31:23.176Z,99764.41
2023-02-18T11:34:03.212Z,99783.03
2023-02-18T11:36:37.316Z,99790.78
2023-02-18T11:39:08.537Z,99770.50
2023-02-18T11:41:42.531Z,99775.69
2023-02-18T11:44:22.125Z,99757.91
2023-02-18T11:47:00.443Z,99765.47
2023-02-18T11:49:31.338Z,99763.78
2023-02-18T11:52:22.798Z,99724.69
2023-02-18T11:55:09.547Z,99742.84
2023-02-18T11:57:49.854Z,99734.09
2023-02-18T12:00:25.290Z,99736.78
2023-02-18T12:02:57.621Z,99733.28
2023-02-18T12:05:29.615Z,99749.75
2023-02-18T12:08:03.090Z,99720.75
2023-02-18T12:10:37.884Z,99714.88
2023-02-18T12:13:39.504Z,99731.16
2023-02-18T12:16:23.121Z,99712.19
2023-02-18T12:19:32.828Z,99695.41
2023-02-18T12:22:06.827Z,99719.94
2023-02-18T12:24:49.105Z,99708.34
2023-02-18T12:27:26.899Z,99695.38
2023-02-18T12:30:25.276Z,99681.97
2023-02-18T12:33:01.280Z,99687.69
2023-02-18T12:35:55.067Z,99675.94
2023-02-18T12:38:50.606Z,99653.78
2023-02-18T12:41:45.492Z,99653.91
2023-02-18T12:45:01.245Z,99658.13
2023-02-18T12:48:28.644Z,99643.50
2023-02-18T12:51:12.638Z,99638.75
2023-02-18T12:54:01.432Z,99625.88
2023-02-18T12:57:03.102Z,99619.75
2023-02-18T12:59:53.730Z,99609.03
2023-02-18T13:02:41.174Z,99591.84
2023-02-18T13:05:18.334Z,99603.91
2023-02-18T13:08:24.992Z,99591.78
2023-02-18T13:11:19.714Z,99588.38
2023-02-18T13:14:00.319Z,99586.69
2023-02-18T13:16:33.092Z,99574.59
2023-02-18T13:19:12.200Z,99570.69
2023-02-18T13:21:51.076Z,99553.59
2023-02-18T13:24:37.003Z,99581.78
2023-02-18T13:27:16.588Z,99546.91
2023-02-18T13:29:54.816Z,99539.19
2023-02-18T13:32:33.573Z,99525.63
2023-02-18T13:35:09.820Z,99521.63
2023-02-18T13:37:55.944Z,99510.72
2023-02-18T13:40:30.634Z,99523.19
2023-02-18T13:43:22.534Z,99543.13
2023-02-18T13:46:15.972Z,99517.22
2023-02-18T13:48:52.643Z,99528.88
2023-02-18T13:51:33.921Z,99535.63
2023-02-18T13:54:30.880Z,99501.97
2023-02-18T13:57:05.884Z,99515.44
2023-02-18T13:59:38.059Z,99495.50
2023-02-18T14:02:32.673Z,99496.31
2023-02-18T14:05:24.028Z,99499.34
2023-02-18T14:07:54.452Z,99489.72
2023-02-18T14:10:39.974Z,99486.19
2023-02-18T14:13:41.407Z,99476.59
2023-02-18T14:16:15.174Z,99466.34
2023-02-18T14:19:01.505Z,99491.63
2023-02-18T14:21:45.116Z,99508.69
2023-02-18T14:24:14.610Z,99459.31
2023-02-18T14:26:54.193Z,99463.81
2023-02-18T14:29:31.735Z,99474.75
2023-02-18T14:32:08.929Z,99442.63
2023-02-18T14:35:17.609Z,99448.78
2023-02-18T14:38:24.982Z,99437.28
2023-02-18T14:41:41.621Z,99439.63
2023-02-18T14:44:42.915Z,99440.34
2023-02-18T14:47:31.539Z,99441.72
2023-02-18T14:50:06.373Z,99473.00
2023-02-18T14:52:39.955Z,99424.91
2023-02-18T14:55:23.106Z,99433.31
2023-02-18T14:58:00.342Z,99436.25
2023-02-18T15:00:37.233Z,99428.31
2023-02-18T15:06:31.284Z,99416.69
2023-02-18T15:09:02.310Z,99416.59
2023-02-18T15:11:40.729Z,99425.22
2023-02-18T15:14:26.719Z,99423.06
2023-02-18T15:16:57.696Z,99430.97
2023-02-18T15:19:49.477Z,99437.44
2023-02-18T15:22:25.653Z,99422.94
2023-02-18T15:25:01.683Z,99417.09
2023-02-18T15:27:34.194Z,99411.94
2023-02-18T15:33:51.357Z,99409.13
2023-02-18T15:36:31.499Z,99416.66
2023-02-18T15:39:04.966Z,99434.69
2023-02-18T15:41:34.090Z,99409.75
2023-02-18T15:44:11.636Z,99401.31
2023-02-18T15:46:41.404Z,99415.72
2023-02-18T15:49:25.659Z,99402.16
2023-02-18T15:52:14.753Z,99414.41
2023-02-18T15:54:45.894Z,99411.94
2023-02-18T15:57:20.831Z,99394.75
2023-02-18T16:00:02.976Z,99399.66
2023-02-18T16:02:37.025Z,99422.78
2023-02-18T16:05:15.937Z,99389.28
2023-02-18T16:08:19.175Z,99389.66
2023-02-18T16:10:58.009Z,99376.44
2023-02-18T16:13:37.270Z,99379.56
2023-02-18T16:16:15.029Z,99372.88
2023-02-18T16:18:49.721Z,99383.28
2023-02-18T16:21:38.403Z,99373.00
2023-02-18T16:24:33.350Z,99380.75
2023-02-18T16:27:06.763Z,99394.31
2023-02-18T16:29:39.322Z,99390.47
2023-02-18T16:32:13.605Z,99390.34
2023-02-18T16:34:49.135Z,99382.13
2023-02-18T16:37:40.898Z,99391.88
2023-02-18T16:40:33.457Z,99378.75
2023-02-18T16:43:20.042Z,99373.19
2023-02-18T16:45:58.562Z,99399.19
2023-02-18T16:48:35.145Z,99392.28
2023-02-18T16:51:08.768Z,99389.56
2023-02-18T16:53:41.227Z,99384.03
2023-02-18T16:56:21.486Z,99397.63
2023-02-18T16:59:11.262Z,99407.66
2023-02-18T17:01:49.550Z,99405.97
2023-02-18T17:07:22.025Z,99403.78
2023-02-18T17:10:04.636Z,99421.09
2023-02-18T17:12:50.060Z,99410.03
2023-02-18T17:15:31.611Z,99405.19
2023-02-18T17:18:13.058Z,99409.41
2023-02-18T17:20:42.927Z,99395.59
2023-02-18T17:23:19.263Z,99407.53
2023-02-18T17:26:13.375Z,99400.50
2023-02-18T17:28:45.597Z,99414.84
2023-02-18T17:31:27.493Z,99429.47
2023-02-18T17:34:02.738Z,99414.78
2023-02-18T17:36:45.967Z,99423.31
2023-02-18T17:39:21.515Z,99411.69
2023-02-18T17:41:55.160Z,99424.13
2023-02-18T17:44:33.953Z,99419.78
2023-02-18T17:47:15.464Z,99432.56
2023-02-18T17:49:58.237Z,99402.59
2023-02-18T17:52:32.537Z,99418.22
2023-02-18T17:55:09.096Z,99440.44
2023-02-18T17:57:48.939Z,99399.63
2023-02-18T18:00:31.953Z,99394.09
2023-02-18T18:03:11.338Z,99393.44
2023-02-18T18:05:44.945Z,99416.44
2023-02-18T18:08:24.031Z,99396.94
2023-02-18T18:11:02.072Z,99388.38
2023-02-18T18:13:37.514Z,99397.66
2023-02-18T18:16:17.188Z,99393.78
2023-02-18T18:18:51.588Z,99401.34
2023-02-18T18:21:36.787Z,99415.47
2023-02-18T18:24:08.078Z,99417.47
2023-02-18T18:26:41.628Z,99409.75
2023-02-18T18:29:34.023Z,99425.38
2023-02-18T18:32:06.994Z,99431.94
2023-02-18T18:34:49.454Z,99424.50
2023-02-18T18:37:36.429Z,99420.84
2023-02-18T18:40:12.507Z,99428.28
2023-02-18T18:42:44.996Z,99421.19
2023-02-18T18:45:23.289Z,99435.63
2023-02-18T18:48:01.916Z,99464.53
2023-02-18T18:50:42.596Z,99439.72
2023-02-18T18:53:24.094Z,99441.72
2023-02-18T18:56:20.219Z,99449.75
2023-02-18T19:01:42.013Z,99451.13
2023-02-18T19:04:23.306Z,99455.94
2023-02-18T19:07:02.923Z,99459.19
2023-02-18T19:09:35.234Z,99456.34
2023-02-18T19:12:06.754Z,99474.97
2023-02-18T19:14:49.007Z,99462.06
2023-02-18T19:17:31.794Z,99446.78
2023-02-18T19:20:05.596Z,99456.34
2023-02-18T19:22:44.977Z,99460.72
2023-02-18T19:25:15.935Z,99470.66
2023-02-18T19:27:47.516Z,99455.69
2023-02-18T19:30:31.733Z,99477.19
2023-02-18T19:33:08.542Z,99488.91
2023-02-18T19:35:46.378Z,99491.78
2023-02-18T19:38:30.184Z,99486.41
2023-02-18T19:41:13.685Z,99491.13
2023-02-18T19:43:49.215Z,99500.66
2023-02-18T19:46:23.175Z,99508.41
2023-02-18T19:49:04.121Z,99517.97
2023-02-18T19:51:44.393Z,99502.38
2023-02-18T19:54:27.872Z,99506.03
2023-02-18T19:56:59.956Z,99531.06
2023-02-18T19:59:39.324Z,99541.13
2023-02-18T20:02:15.362Z,99514.44
2023-02-18T20:04:46.918Z,99525.84
2023-02-18T20:07:39.813Z,99510.25
2023-02-18T20:10:12.826Z,99539.44
2023-02-18T20:12:43.617Z,99511.78
2023-02-18T20:15:30.461Z,99522.16
2023-02-18T20:18:01.411Z,99513.59
2023-02-18T20:20:34.804Z,99522.34
2023-02-18T20:23:06.554Z,99524.03
2023-02-18T20:25:37.740Z,99512.78
2023-02-18T20:28:10.143Z,99533.78
2023-02-18T20:30:50.886Z,99509.78
2023-02-18T20:33:30.988Z,99528.03
2023-02-18T20:36:13.189Z,99554.91
2023-02-18T20:38:54.330Z,99520.84
2023-02-18T20:41:31.367Z,99525.19
2023-02-18T20:44:08.270Z,99513.63
2023-02-18T20:46:42.272Z,99499.88
2023-02-18T20:49:26.572Z,99510.13
2023-02-18T20:51:59.774Z,99518.16
2023-02-18T20:54:45.004Z,99510.94
2023-02-18T20:57:19.515Z,99532.06
2023-02-18T20:59:51.676Z,99522.03
2023-02-18T21:02:49.869Z,99517.16
2023-02-18T21:05:29.042Z,99517.66
2023-02-18T21:07:59.785Z,99510.94
2023-02-18T21:10:44.920Z,99520.84
2023-02-18T21:13:22.436Z,99520.66
2023-02-18T21:15:56.137Z,99541.28
2023-02-18T21:18:37.941Z,99525.56
2023-02-18T21:21:11.435Z,99512.63
2023-02-18T21:23:53.956Z,99538.44
2023-02-18T21:26:31.268Z,99516.97
2023-02-18T21:29:15.150Z,99524.84
2023-02-18T21:32:05.423Z,99521.00
2023-02-18T21:37:24.913Z,99530.38
2023-02-18T21:39:55.406Z,99533.09
2023-02-18T21:42:31.559Z,99541.59
2023-02-18T21:45:03.028Z,99533.09
2023-02-18T21:47:33.493Z,99543.97
2023-02-18T21:50:03.659Z,99561.41
2023-02-18T21:52:36.456Z,99554.88
2023-02-18T21:55:06.877Z,99559.75
2023-02-18T21:57:37.506Z,99555.84
2023-02-18T22:00:20.068Z,99541.47
2023-02-18T22:03:00.596Z,99572.97
2023-02-18T22:05:35.737Z,99562.94
2023-02-18T22:08:06.351Z,99573.16
2023-02-18T22:10:42.726Z,99577.38
2023-02-18T22:13:22.838Z,99579.88
2023-02-18T22:16:02.176Z,99581.03
2023-02-18T22:18:39.560Z,99594.69
2023-02-18T22:21:10.786Z,99587.41
2023-02-18T22:23:41.816Z,99580.19
2023-02-18T22:26:11.418Z,99600.47
2023-02-18T22:28:44.549Z,99603.50
2023-02-18T22:31:14.360Z,99585.00
2023-02-18T22:33:49.312Z,99591.53
2023-02-18T22:36:22.603Z,99604.03
2023-02-18T22:38:56.125Z,99596.44
2023-02-18T22:41:27.574Z,99601.81
2023-02-18T22:44:08.381Z,99617.88
2023-02-18T22:46:45.838Z,99600.13
2023-02-18T22:49:20.168Z,99618.09
2023-02-18T22:51:55.999Z,99619.16
2023-02-18T22:54:25.367Z,99632.94
2023-02-18T22:57:02.407Z,99622.00
2023-02-18T22:59:36.024Z,99625.88
2023-02-18T23:02:04.962Z,99634.56
2023-02-18T23:04:38.245Z,99632.41
2023-02-18T23:07:15.172Z,99629.25
2023-02-18T23:09:46.653Z,99629.72
2023-02-18T23:12:16.657Z,99641.13
2023-02-18T23:14:59.053Z,99648.63
2023-02-18T23:17:28.161Z,99626.81
2023-02-18T23:19:59.694Z,99627.03
2023-02-18T23:22:36.691Z,99639.59
2023-02-18T23:25:08.605Z,99643.63
2023-02-18T23:27:40.451Z,99644.31
2023-02-18T23:30:14.374Z,99640.94
2023-02-18T23:32:43.881Z,99643.50
2023-02-18T23:35:23.371Z,99647.22
2023-02-18T23:38:09.112Z,99647.47
2023-02-18T23:40:39.767Z,99646.75
2023-02-18T23:43:09.356Z,99643.88
2023-02-18T23:45:47.319Z,99643.69
2023-02-18T23:48:17.274Z,99662.00
2023-02-18T23:50:49.398Z,99660.22
2023-02-18T23:53:22.459Z,99663.47
2023-02-18T23:55:51.383Z,99665.13
2023-02-18T23:58:21.491Z,99669.09
